Time;durP1;ratioP1;P1;durP2;ratioP2;P2;SDS_P1;SDS_P2;PMS_P1;PMS_P2;Temp;Humidity;BMP_temperature;BMP_pressure;BME280_temperature;BME280_humidity;BME280_pressure;Samples;Min_cycle;Max_cycle;Signal;HPM_P1;HPM_P2
2022/01/12 00:00:15;;;;;;;61.17;25.92;;;;;;;;;;4992100;28;95393;-74
2022/01/12 00:02:41;;;;;;;54.47;24.40;;;;;;;;;;4992168;28;96858;-75
2022/01/12 00:05:08;;;;;;;61.30;26.85;;;;;;;;;;4990432;28;97516;-74
2022/01/12 00:07:34;;;;;;;67.72;26.08;;;;;;;;;;4995242;28;95268;-74
2022/01/12 00:10:01;;;;;;;67.22;26.88;;;;;;;;;;5010867;28;96883;-74
2022/01/12 00:12:27;;;;;;;77.53;29.80;;;;;;;;;;5011525;28;97358;-74
2022/01/12 00:14:54;;;;;;;73.32;28.08;;;;;;;;;;5014931;28;95125;-75
2022/01/12 00:17:20;;;;;;;69.22;28.88;;;;;;;;;;5010942;28;97126;-74
2022/01/12 00:19:47;;;;;;;70.25;29.45;;;;;;;;;;5011952;28;95382;-75
2022/01/12 00:22:13;;;;;;;69.00;28.45;;;;;;;;;;5011473;28;96918;-74
2022/01/12 00:25:10;;;;;;;71.82;28.52;;;;;;;;;;4994485;28;97733;-73
2022/01/12 00:33:13;;;;;;;67.00;28.13;;;;;;;;;;5000605;28;98161;-76
2022/01/12 00:35:41;;;;;;;67.00;28.40;;;;;;;;;;4973604;28;95334;-75
2022/01/12 00:38:09;;;;;;;76.75;30.35;;;;;;;;;;4978293;28;96843;-73
2022/01/12 00:40:56;;;;;;;69.45;29.13;;;;;;;;;;4975445;28;95689;-74
2022/01/12 00:43:26;;;;;;;60.88;26.77;;;;;;;;;;4975018;28;96972;-74
2022/01/12 00:45:52;;;;;;;67.05;28.27;;;;;;;;;;4974887;28;97310;-73
2022/01/12 00:48:19;;;;;;;64.03;27.48;;;;;;;;;;4983958;28;95372;-74
2022/01/12 00:50:45;;;;;;;71.78;29.27;;;;;;;;;;5015326;28;96783;-74
2022/01/12 00:53:13;;;;;;;79.45;31.13;;;;;;;;;;5013886;28;96204;-73
2022/01/12 00:55:39;;;;;;;66.05;29.08;;;;;;;;;;5014051;28;95439;-74
2022/01/12 00:58:05;;;;;;;60.63;28.67;;;;;;;;;;5001624;28;96857;-75
2022/01/12 01:00:32;;;;;;;63.00;28.83;;;;;;;;;;4992978;28;95246;-73
2022/01/12 01:02:59;;;;;;;70.40;28.85;;;;;;;;;;4994920;28;96811;-73
2022/01/12 01:05:28;;;;;;;64.00;27.98;;;;;;;;;;4994716;28;97151;-73
2022/01/12 01:07:54;;;;;;;64.15;27.88;;;;;;;;;;4993298;28;95558;-75
2022/01/12 01:10:45;;;;;;;67.95;27.67;;;;;;;;;;4994695;28;96130;-72
2022/01/12 01:13:13;;;;;;;71.00;29.35;;;;;;;;;;5012216;28;97297;-73
2022/01/12 01:26:29;;;;;;;65.05;28.60;;;;;;;;;;4981672;28;97672;-75
2022/01/12 01:28:56;;;;;;;79.07;28.98;;;;;;;;;;4994333;28;95302;-73
2022/01/12 01:31:29;;;;;;;67.13;27.50;;;;;;;;;;4993672;28;96877;-73
2022/01/12 01:33:55;;;;;;;73.32;29.02;;;;;;;;;;4995963;28;97485;-73
2022/01/12 01:36:27;;;;;;;72.65;29.27;;;;;;;;;;5000671;28;95668;-73
2022/01/12 01:38:53;;;;;;;75.47;30.35;;;;;;;;;;4997952;28;96830;-74
2022/01/12 01:41:22;;;;;;;75.35;28.92;;;;;;;;;;4999716;28;96520;-73
2022/01/12 01:54:50;;;;;;;81.57;32.13;;;;;;;;;;5002542;28;96173;-73
2022/01/12 01:57:16;;;;;;;82.32;29.98;;;;;;;;;;5002485;28;95335;-75
2022/01/12 01:59:43;;;;;;;82.80;32.65;;;;;;;;;;4998722;28;97051;-74
2022/01/12 02:02:10;;;;;;;72.82;30.10;;;;;;;;;;4989265;28;97303;-74
2022/01/12 02:04:36;;;;;;;85.97;32.22;;;;;;;;;;4997990;28;95224;-75
2022/01/12 02:07:03;;;;;;;79.75;31.15;;;;;;;;;;4996786;28;96832;-74
2022/01/12 02:09:29;;;;;;;73.95;30.17;;;;;;;;;;4997210;28;95236;-74
2022/01/12 02:11:56;;;;;;;78.20;31.38;;;;;;;;;;5009696;28;97248;-73
2022/01/12 02:14:22;;;;;;;75.72;30.00;;;;;;;;;;4995673;28;97510;-73
2022/01/12 02:16:54;;;;;;;78.68;32.00;;;;;;;;;;4989514;28;95401;-73
2022/01/12 02:35:56;;;;;;;75.28;32.00;;;;;;;;;;4989129;28;97758;-74
2022/01/12 02:41:08;;;;;;;73.43;28.75;;;;;;;;;;4989776;28;96814;-74
2022/01/12 02:51:35;;;;;;;98.32;32.67;;;;;;;;;;4981974;28;97810;-74
2022/01/12 02:54:03;;;;;;;97.05;33.88;;;;;;;;;;4983348;28;95983;-74
2022/01/12 02:56:31;;;;;;;119.50;35.85;;;;;;;;;;4991147;28;97296;-74
2022/01/12 02:58:59;;;;;;;91.53;32.40;;;;;;;;;;4993818;28;96002;-73
2022/01/12 03:04:03;;;;;;;115.30;34.17;;;;;;;;;;4981854;28;97574;-76
2022/01/12 03:06:34;;;;;;;88.60;33.53;;;;;;;;;;4976362;28;95392;-75
2022/01/12 03:09:01;;;;;;;97.90;33.55;;;;;;;;;;4978954;28;96915;-75
2022/01/12 03:11:28;;;;;;;105.57;33.35;;;;;;;;;;4987934;28;97298;-74
2022/01/12 03:13:55;;;;;;;113.22;35.35;;;;;;;;;;5006294;28;95272;-73
2022/01/12 03:16:24;;;;;;;124.28;35.55;;;;;;;;;;4980916;28;97556;-71
2022/01/12 03:18:52;;;;;;;128.18;35.72;;;;;;;;;;4982174;28;95368;-75
2022/01/12 03:21:19;;;;;;;92.78;32.60;;;;;;;;;;4989525;28;96876;-73
2022/01/12 03:23:46;;;;;;;83.40;31.40;;;;;;;;;;4981749;28;97507;-73
2022/01/12 03:26:12;;;;;;;111.75;34.58;;;;;;;;;;4989060;28;95447;-73
2022/01/12 03:28:40;;;;;;;107.82;32.20;;;;;;;;;;4993821;28;97118;-74
2022/01/12 03:31:18;;;;;;;96.20;33.55;;;;;;;;;;4991722;28;97315;-73
2022/01/12 03:36:41;;;;;;;95.90;32.97;;;;;;;;;;4996216;28;96749;-74
2022/01/12 03:39:11;;;;;;;80.97;30.67;;;;;;;;;;4983561;28;96049;-73
2022/01/12 03:41:38;;;;;;;76.55;29.92;;;;;;;;;;4981222;28;97091;-74
2022/01/12 03:44:06;;;;;;;98.13;32.38;;;;;;;;;;4984063;28;97437;-73
2022/01/12 03:46:35;;;;;;;107.35;32.95;;;;;;;;;;4983168;28;96693;-73
2022/01/12 03:49:02;;;;;;;93.35;32.20;;;;;;;;;;4981684;28;96853;-74
2022/01/12 03:51:29;;;;;;;88.15;32.33;;;;;;;;;;4989738;28;97529;-74
2022/01/12 03:53:55;;;;;;;118.22;34.50;;;;;;;;;;4998983;28;95560;-73
2022/01/12 03:56:21;;;;;;;98.30;32.63;;;;;;;;;;4994699;28;96770;-73
2022/01/12 03:58:48;;;;;;;99.53;33.55;;;;;;;;;;4997876;28;96699;-73
2022/01/12 04:01:14;;;;;;;111.47;32.83;;;;;;;;;;4986929;28;96988;-72
2022/01/12 04:03:45;;;;;;;84.20;30.98;;;;;;;;;;4991190;28;97393;-72
2022/01/12 04:08:59;;;;;;;88.05;30.10;;;;;;;;;;4986807;28;99422;-72
2022/01/12 04:11:25;;;;;;;94.68;32.42;;;;;;;;;;4983706;28;97606;-72
2022/01/12 04:13:52;;;;;;;97.43;31.50;;;;;;;;;;4981068;28;96956;-75
2022/01/12 04:16:18;;;;;;;100.00;32.08;;;;;;;;;;4981637;28;98149;-73
2022/01/12 04:18:45;;;;;;;99.18;33.17;;;;;;;;;;4989240;28;97628;-72
2022/01/12 04:21:12;;;;;;;119.03;35.67;;;;;;;;;;4994540;28;95421;-72
2022/01/12 04:23:40;;;;;;;101.13;33.28;;;;;;;;;;4985788;28;97125;-73
2022/01/12 04:26:10;;;;;;;117.95;34.45;;;;;;;;;;4988392;28;95624;-72
2022/01/12 04:28:43;;;;;;;90.10;31.90;;;;;;;;;;4991993;28;97142;-73
2022/01/12 04:31:10;;;;;;;92.55;31.00;;;;;;;;;;4984080;28;97438;-72
2022/01/12 04:33:37;;;;;;;105.57;32.75;;;;;;;;;;4999582;28;95179;-72
2022/01/12 04:36:04;;;;;;;104.60;32.63;;;;;;;;;;5002982;28;96974;-74
2022/01/12 04:38:33;;;;;;;110.57;33.25;;;;;;;;;;4987673;28;96949;-73
2022/01/12 04:41:01;;;;;;;101.85;32.80;;;;;;;;;;4977147;28;96721;-73
2022/01/12 04:43:27;;;;;;;95.95;31.60;;;;;;;;;;4993798;28;96692;-73
2022/01/12 04:50:49;;;;;;;138.30;36.28;;;;;;;;;;4991420;28;97298;-72
2022/01/12 04:53:17;;;;;;;109.50;34.22;;;;;;;;;;4990936;28;95318;-72
2022/01/12 04:55:44;;;;;;;128.63;33.58;;;;;;;;;;4989301;28;96669;-73
2022/01/12 04:58:10;;;;;;;114.72;33.88;;;;;;;;;;4990856;28;96664;-72
2022/01/12 05:00:37;;;;;;;120.25;33.15;;;;;;;;;;4984777;28;95350;-76
2022/01/12 05:08:51;;;;;;;125.32;33.92;;;;;;;;;;4987662;28;96862;-74
2022/01/12 05:14:03;;;;;;;127.15;35.28;;;;;;;;;;4989433;28;95262;-73
2022/01/12 05:16:29;;;;;;;108.55;33.53;;;;;;;;;;4979348;28;97091;-73
2022/01/12 05:18:56;;;;;;;132.93;35.42;;;;;;;;;;4984126;28;97509;-74
2022/01/12 05:21:23;;;;;;;115.60;33.97;;;;;;;;;;4990920;28;95348;-73
2022/01/12 05:23:49;;;;;;;140.95;35.15;;;;;;;;;;4994227;28;96858;-73
2022/01/12 05:26:16;;;;;;;189.50;37.22;;;;;;;;;;4990426;28;97672;-73
2022/01/12 05:28:42;;;;;;;185.95;37.22;;;;;;;;;;4994295;28;97181;-74
2022/01/12 05:31:10;;;;;;;102.22;31.88;;;;;;;;;;4993012;28;97323;-75
2022/01/12 05:33:37;;;;;;;333.95;43.63;;;;;;;;;;4990212;28;96895;-75
2022/01/12 05:36:06;;;;;;;192.68;38.08;;;;;;;;;;4999289;28;95680;-75
2022/01/12 05:38:32;;;;;;;174.18;38.00;;;;;;;;;;4989049;28;97346;-74
2022/01/12 05:41:04;;;;;;;131.60;36.85;;;;;;;;;;4991853;28;95824;-75
2022/01/12 05:43:31;;;;;;;174.63;38.28;;;;;;;;;;4992143;28;97138;-74
2022/01/12 05:46:07;;;;;;;188.55;38.78;;;;;;;;;;4993120;28;97671;-75
2022/01/12 05:51:18;;;;;;;176.07;38.53;;;;;;;;;;4994199;28;97624;-72
2022/01/12 05:53:45;;;;;;;163.55;36.25;;;;;;;;;;4992714;28;95306;-73
2022/01/12 05:56:11;;;;;;;125.65;36.55;;;;;;;;;;4989671;28;96919;-75
2022/01/12 05:58:37;;;;;;;282.90;42.05;;;;;;;;;;4996796;28;97363;-73
2022/01/12 06:01:04;;;;;;;139.85;36.55;;;;;;;;;;5000285;28;95365;-74
2022/01/12 06:03:31;;;;;;;157.57;37.83;;;;;;;;;;4993183;28;97553;-74
2022/01/12 06:05:57;;;;;;;126.25;34.30;;;;;;;;;;4996595;28;97312;-73
2022/01/12 06:08:26;;;;;;;161.80;40.03;;;;;;;;;;5013574;28;95295;-73
2022/01/12 06:10:53;;;;;;;226.32;42.08;;;;;;;;;;5016680;28;96892;-73
2022/01/12 06:13:19;;;;;;;135.15;38.70;;;;;;;;;;5009541;28;95297;-74
2022/01/12 06:15:46;;;;;;;198.30;41.28;;;;;;;;;;4993564;28;96758;-73
2022/01/12 06:18:12;;;;;;;125.70;37.47;;;;;;;;;;4990465;28;97279;-74
2022/01/12 06:20:38;;;;;;;148.27;37.80;;;;;;;;;;4994208;28;95179;-74
2022/01/12 06:23:05;;;;;;;158.15;37.47;;;;;;;;;;4992515;28;96875;-74
2022/01/12 06:25:31;;;;;;;112.75;33.65;;;;;;;;;;4992265;28;97368;-74
2022/01/12 06:28:19;;;;;;;98.80;33.30;;;;;;;;;;4983980;28;96161;-75
2022/01/12 06:33:29;;;;;;;146.98;34.85;;;;;;;;;;4992514;28;97897;-73
2022/01/12 06:35:55;;;;;;;154.48;35.40;;;;;;;;;;4992434;28;96764;-74
2022/01/12 06:38:22;;;;;;;250.15;36.90;;;;;;;;;;4990982;28;97305;-75
2022/01/12 06:40:48;;;;;;;133.93;37.10;;;;;;;;;;4991814;28;95642;-74
2022/01/12 06:43:14;;;;;;;156.88;38.38;;;;;;;;;;4992795;28;96755;-75
2022/01/12 06:45:41;;;;;;;105.97;34.03;;;;;;;;;;5011565;28;97401;-74
2022/01/12 06:48:07;;;;;;;148.75;40.33;;;;;;;;;;4997872;28;95291;-75
2022/01/12 06:50:34;;;;;;;136.63;37.25;;;;;;;;;;4993315;28;96878;-75
2022/01/12 06:53:00;;;;;;;148.30;38.22;;;;;;;;;;4992093;28;97304;-75
2022/01/12 06:55:26;;;;;;;188.68;43.10;;;;;;;;;;4994943;28;95379;-75
2022/01/12 06:57:53;;;;;;;127.90;36.58;;;;;;;;;;4992714;28;97635;-75
2022/01/12 07:00:19;;;;;;;142.98;38.10;;;;;;;;;;4992284;28;95453;-75
2022/01/12 07:02:45;;;;;;;142.80;39.17;;;;;;;;;;4994902;28;96893;-75
2022/01/12 07:05:12;;;;;;;147.63;44.83;;;;;;;;;;4990665;28;97210;-75
2022/01/12 07:07:38;;;;;;;162.48;44.33;;;;;;;;;;4991262;28;95678;-75
2022/01/12 07:10:05;;;;;;;146.73;48.88;;;;;;;;;;4992548;28;96852;-75
2022/01/12 07:12:31;;;;;;;180.00;51.90;;;;;;;;;;4992097;28;97519;-75
2022/01/12 07:14:57;;;;;;;165.65;51.45;;;;;;;;;;4994537;28;96135;-76
2022/01/12 07:17:24;;;;;;;163.35;47.80;;;;;;;;;;4992344;28;97401;-75
2022/01/12 07:19:50;;;;;;;131.52;36.70;;;;;;;;;;4991905;28;95464;-75
2022/01/12 07:22:16;;;;;;;148.05;40.67;;;;;;;;;;4991943;28;96814;-74
2022/01/12 07:24:43;;;;;;;160.18;44.78;;;;;;;;;;4990798;28;97296;-75
2022/01/12 07:27:09;;;;;;;145.13;43.15;;;;;;;;;;4991441;28;95345;-75
2022/01/12 07:29:35;;;;;;;121.88;37.17;;;;;;;;;;4991737;28;96975;-75
2022/01/12 07:32:02;;;;;;;116.60;34.38;;;;;;;;;;4992153;28;97449;-75
2022/01/12 07:34:28;;;;;;;115.03;33.08;;;;;;;;;;4991557;28;95377;-75
2022/01/12 15:28:31;;;;;;;48.67;19.08;;;;;;;;;;5018090;28;95365;-77
2022/01/12 15:30:58;;;;;;;54.97;19.50;;;;;;;;;;4974608;28;97574;-75
2022/01/12 15:33:24;;;;;;;65.15;21.65;;;;;;;;;;4981262;28;96507;-76
2022/01/12 15:35:50;;;;;;;52.55;19.50;;;;;;;;;;4971530;28;97002;-75
2022/01/12 15:38:17;;;;;;;57.67;19.50;;;;;;;;;;4980207;28;97367;-76
2022/01/12 15:40:44;;;;;;;46.80;17.58;;;;;;;;;;4972955;28;96863;-76
2022/01/12 15:43:11;;;;;;;52.15;19.25;;;;;;;;;;4984062;28;96046;-76
2022/01/12 15:45:37;;;;;;;50.53;18.75;;;;;;;;;;4980322;28;97382;-76
2022/01/12 15:48:05;;;;;;;60.78;19.02;;;;;;;;;;4972860;28;95320;-75
2022/01/12 15:50:34;;;;;;;55.67;18.90;;;;;;;;;;4987803;28;97462;-75
2022/01/12 15:53:02;;;;;;;51.05;18.73;;;;;;;;;;4977722;28;95390;-75
2022/01/12 15:55:29;;;;;;;53.60;18.02;;;;;;;;;;4982341;28;99796;-75
2022/01/12 15:57:56;;;;;;;48.35;17.42;;;;;;;;;;4984087;28;97397;-75
2022/01/12 16:00:22;;;;;;;48.97;17.63;;;;;;;;;;4967709;28;95420;-76
2022/01/12 16:02:49;;;;;;;46.70;17.05;;;;;;;;;;4967846;28;96859;-76
2022/01/12 16:05:16;;;;;;;51.10;17.15;;;;;;;;;;4969371;28;97788;-76
2022/01/12 16:07:42;;;;;;;46.25;17.45;;;;;;;;;;4980844;28;95296;-78
2022/01/12 16:10:41;;;;;;;50.58;18.25;;;;;;;;;;5111984;27;95355;-76
2022/01/12 16:13:07;;;;;;;62.95;19.23;;;;;;;;;;5089345;27;97320;-76
2022/01/12 16:15:54;;;;;;;54.42;17.30;;;;;;;;;;5088863;27;95871;-76
2022/01/12 16:18:20;;;;;;;55.83;18.35;;;;;;;;;;5088316;27;97016;-76
2022/01/12 16:20:49;;;;;;;59.50;18.40;;;;;;;;;;5087905;27;97242;-76
2022/01/12 16:23:16;;;;;;;58.05;18.52;;;;;;;;;;5089323;27;95381;-77
2022/01/12 16:25:44;;;;;;;53.38;17.75;;;;;;;;;;5089049;27;96824;-76
2022/01/12 16:28:16;;;;;;;49.65;17.33;;;;;;;;;;5088312;27;96689;-77
2022/01/12 16:30:47;;;;;;;57.05;18.42;;;;;;;;;;5092380;27;95332;-75
2022/01/12 16:33:14;;;;;;;57.20;17.87;;;;;;;;;;5069928;27;97594;-73
2022/01/12 16:35:43;;;;;;;53.00;17.65;;;;;;;;;;5088169;27;95460;-73
2022/01/12 16:38:10;;;;;;;60.33;18.23;;;;;;;;;;5088730;27;97007;-73
2022/01/12 16:40:36;;;;;;;63.67;18.75;;;;;;;;;;5088969;27;100663;-73
2022/01/12 16:43:02;;;;;;;64.72;19.13;;;;;;;;;;5088498;27;95430;-73
2022/01/12 16:45:29;;;;;;;69.07;19.33;;;;;;;;;;5097608;27;96471;-73
2022/01/12 16:47:55;;;;;;;72.43;20.27;;;;;;;;;;5074691;27;97159;-73
2022/01/12 16:50:22;;;;;;;67.97;20.60;;;;;;;;;;5088470;27;95301;-73
2022/01/12 16:52:48;;;;;;;65.75;19.00;;;;;;;;;;5091163;27;96850;-72
2022/01/12 16:55:14;;;;;;;59.15;19.20;;;;;;;;;;5088425;27;95289;-76
2022/01/12 16:57:41;;;;;;;67.68;20.02;;;;;;;;;;5088136;27;96849;-76
2022/01/12 17:00:08;;;;;;;71.20;20.02;;;;;;;;;;5088380;27;97304;-75
2022/01/12 17:02:34;;;;;;;68.53;19.90;;;;;;;;;;5085832;27;95651;-73
2022/01/12 17:05:01;;;;;;;63.78;19.58;;;;;;;;;;5086964;27;96654;-73
2022/01/12 17:07:27;;;;;;;70.18;20.73;;;;;;;;;;5086513;27;97371;-75
2022/01/12 17:09:53;;;;;;;73.18;21.13;;;;;;;;;;5087236;27;95540;-75
2022/01/12 17:12:20;;;;;;;80.72;21.85;;;;;;;;;;5088156;27;96922;-73
2022/01/12 17:14:46;;;;;;;83.43;22.55;;;;;;;;;;5090709;27;97282;-76
2022/01/12 17:17:31;;;;;;;81.45;20.52;;;;;;;;;;5085072;27;96792;-76
2022/01/12 17:19:57;;;;;;;66.05;20.50;;;;;;;;;;5082990;27;96819;-76
2022/01/12 17:22:30;;;;;;;;;;;;;;;;;;5068835;27;95315;-73
2022/01/12 17:25:08;;;;;;;69.88;19.67;;;;;;;;;;5055336;27;126490;-73
2022/01/12 17:27:36;;;;;;;69.32;19.23;;;;;;;;;;5073602;27;97305;-73
2022/01/12 17:30:04;;;;;;;84.75;20.40;;;;;;;;;;5073097;27;95288;-73
2022/01/12 17:32:32;;;;;;;87.88;21.13;;;;;;;;;;5064826;27;96933;-73
2022/01/12 17:34:58;;;;;;;70.97;20.38;;;;;;;;;;5069339;27;97278;-73
2022/01/12 17:37:25;;;;;;;88.28;21.63;;;;;;;;;;5076187;27;95326;-72
2022/01/12 17:39:53;;;;;;;80.45;21.38;;;;;;;;;;5072844;27;97693;-73
2022/01/12 17:42:21;;;;;;;86.82;22.80;;;;;;;;;;5073536;27;95336;-73
2022/01/12 17:44:50;;;;;;;98.25;22.45;;;;;;;;;;5074284;27;96640;-73
2022/01/12 17:47:18;;;;;;;98.50;21.13;;;;;;;;;;5073440;27;97335;-74
2022/01/12 17:52:30;;;;;;;92.93;20.05;;;;;;;;;;5073109;27;97113;-74
2022/01/12 17:55:01;;;;;;;105.75;21.83;;;;;;;;;;5073767;27;97306;-74
2022/01/12 17:57:28;;;;;;;81.93;20.15;;;;;;;;;;5066671;27;95372;-74
2022/01/12 17:59:54;;;;;;;98.25;20.02;;;;;;;;;;5076361;27;96864;-74
2022/01/12 18:02:21;;;;;;;100.65;19.73;;;;;;;;;;5071094;27;95396;-74
2022/01/12 18:04:48;;;;;;;101.97;20.70;;;;;;;;;;5054500;27;96962;-74
2022/01/12 18:07:15;;;;;;;103.55;21.00;;;;;;;;;;5108889;22;99043;-74
2022/01/12 18:09:43;;;;;;;100.63;20.42;;;;;;;;;;5012335;28;95911;-74
2022/01/12 18:12:14;;;;;;;100.22;20.52;;;;;;;;;;5008859;28;97018;-77
2022/01/12 18:14:47;;;;;;;91.55;20.15;;;;;;;;;;5000496;28;97357;-82
2022/01/12 18:17:13;;;;;;;129.73;22.58;;;;;;;;;;5011965;28;95181;-73
2022/01/12 18:19:43;;;;;;;109.90;23.48;;;;;;;;;;5012235;28;96769;-72
2022/01/12 18:22:12;;;;;;;124.88;24.73;;;;;;;;;;5012510;28;96140;-75
2022/01/12 18:24:42;;;;;;;114.53;25.27;;;;;;;;;;5011808;28;97384;-74
2022/01/12 18:27:09;;;;;;;129.73;23.48;;;;;;;;;;5008785;28;97433;-72
2022/01/12 18:29:36;;;;;;;114.80;23.50;;;;;;;;;;5011404;28;95360;-72
2022/01/12 18:32:04;;;;;;;103.57;23.00;;;;;;;;;;5010996;28;97112;-73
2022/01/12 18:34:30;;;;;;;102.63;23.02;;;;;;;;;;5008948;28;97380;-76
2022/01/12 18:37:01;;;;;;;112.35;24.20;;;;;;;;;;5012111;28;95398;-75
2022/01/12 18:39:30;;;;;;;103.35;24.85;;;;;;;;;;5012816;28;96756;-75
2022/01/12 18:42:02;;;;;;;95.78;23.50;;;;;;;;;;5012141;28;97531;-76
2022/01/12 18:44:29;;;;;;;90.63;23.98;;;;;;;;;;5008656;28;99055;-76
2022/01/12 18:46:55;;;;;;;94.85;25.38;;;;;;;;;;5011183;28;97339;-75
2022/01/12 18:49:22;;;;;;;104.07;25.10;;;;;;;;;;5012387;28;96007;-76
2022/01/12 18:51:51;;;;;;;109.70;25.40;;;;;;;;;;5012710;28;96770;-75
2022/01/12 18:54:18;;;;;;;91.40;22.98;;;;;;;;;;5012102;28;97435;-76
2022/01/12 18:56:45;;;;;;;95.30;24.35;;;;;;;;;;5011956;28;95290;-75
2022/01/12 18:59:11;;;;;;;96.45;23.75;;;;;;;;;;5012065;28;96836;-75
2022/01/12 19:01:38;;;;;;;96.30;24.65;;;;;;;;;;4999245;28;97584;-73
2022/01/12 19:04:06;;;;;;;100.45;24.35;;;;;;;;;;5012804;28;95797;-74
2022/01/12 19:06:36;;;;;;;101.95;24.33;;;;;;;;;;5004743;28;97477;-74
2022/01/12 19:09:03;;;;;;;94.97;24.17;;;;;;;;;;5011364;28;95312;-75
2022/01/12 19:11:29;;;;;;;111.95;25.52;;;;;;;;;;5010234;28;96802;-75
2022/01/12 19:14:10;;;;;;;107.07;23.50;;;;;;;;;;5010828;28;97293;-75
2022/01/12 19:16:38;;;;;;;114.72;25.80;;;;;;;;;;5006884;28;96177;-75
2022/01/12 19:19:04;;;;;;;110.82;24.80;;;;;;;;;;5009590;28;96663;-78
2022/01/12 19:21:31;;;;;;;117.05;27.08;;;;;;;;;;5006438;28;99492;-74
2022/01/12 19:24:00;;;;;;;117.53;25.35;;;;;;;;;;5008781;28;95293;-75
2022/01/12 19:26:47;;;;;;;102.75;24.60;;;;;;;;;;5013616;28;98139;-74
2022/01/12 19:29:14;;;;;;;109.05;25.40;;;;;;;;;;5007940;28;96030;-76
2022/01/12 19:31:41;;;;;;;117.30;26.80;;;;;;;;;;5010079;28;96737;-74
2022/01/12 19:34:08;;;;;;;127.88;29.83;;;;;;;;;;5008352;28;97343;-75
2022/01/12 19:36:36;;;;;;;121.85;26.52;;;;;;;;;;5010790;28;95378;-74
2022/01/12 19:39:03;;;;;;;138.98;27.02;;;;;;;;;;5010022;28;96728;-76
2022/01/12 19:41:30;;;;;;;118.75;27.33;;;;;;;;;;5009166;28;97826;-75
2022/01/12 19:43:56;;;;;;;124.82;26.52;;;;;;;;;;5008823;28;95536;-75
2022/01/12 19:46:31;;;;;;;119.18;27.60;;;;;;;;;;5009746;28;97410;-75
2022/01/12 19:49:01;;;;;;;117.22;26.33;;;;;;;;;;5011926;28;97256;-75
2022/01/12 19:51:51;;;;;;;128.98;27.50;;;;;;;;;;5008931;28;96710;-74
2022/01/12 19:54:24;;;;;;;132.55;28.02;;;;;;;;;;5008610;28;97313;-75
2022/01/12 19:56:56;;;;;;;132.88;29.02;;;;;;;;;;5010133;28;95190;-75
2022/01/12 19:59:25;;;;;;;126.10;27.10;;;;;;;;;;5009800;28;96840;-74
2022/01/12 20:01:54;;;;;;;125.90;26.45;;;;;;;;;;5010230;28;97449;-75
2022/01/12 20:04:20;;;;;;;119.57;26.02;;;;;;;;;;5009204;28;95154;-74
2022/01/12 20:06:58;;;;;;;116.32;27.17;;;;;;;;;;5005065;28;96881;-75
2022/01/12 20:09:30;;;;;;;144.73;28.98;;;;;;;;;;5009834;28;96169;-74
2022/01/12 20:12:00;;;;;;;116.18;28.30;;;;;;;;;;5013247;28;95438;-74
2022/01/12 20:14:27;;;;;;;118.38;28.70;;;;;;;;;;5007932;28;97414;-74
2022/01/12 20:22:22;;;;;;;115.27;27.53;;;;;;;;;;5009321;28;97382;-74
2022/01/12 20:24:55;;;;;;;115.63;27.42;;;;;;;;;;5010406;28;95270;-72
2022/01/12 20:27:23;;;;;;;125.05;29.42;;;;;;;;;;5007432;28;95749;-72
2022/01/12 20:29:52;;;;;;;129.63;29.00;;;;;;;;;;4999763;28;96223;-73
2022/01/12 20:32:20;;;;;;;120.90;29.55;;;;;;;;;;5012737;28;95424;-72
2022/01/12 20:35:06;;;;;;;126.95;30.00;;;;;;;;;;5010111;28;97455;-73
2022/01/12 20:37:33;;;;;;;134.82;30.40;;;;;;;;;;5010748;28;95229;-72
2022/01/12 20:40:00;;;;;;;134.00;29.95;;;;;;;;;;5011092;28;96938;-72
2022/01/12 20:42:27;;;;;;;126.45;32.10;;;;;;;;;;5008227;28;97444;-72
2022/01/12 20:44:53;;;;;;;129.43;29.98;;;;;;;;;;5010648;28;95356;-72
2022/01/12 20:47:23;;;;;;;145.52;31.45;;;;;;;;;;5010045;28;96842;-72
2022/01/12 20:49:50;;;;;;;135.65;30.83;;;;;;;;;;5010283;28;97365;-72
2022/01/12 20:52:16;;;;;;;138.13;31.50;;;;;;;;;;5009999;28;96491;-72
2022/01/12 20:54:43;;;;;;;146.40;33.05;;;;;;;;;;5013969;28;96715;-72
2022/01/12 20:57:10;;;;;;;145.30;34.15;;;;;;;;;;5012397;28;95865;-72
2022/01/12 20:59:39;;;;;;;156.15;33.22;;;;;;;;;;5011848;28;96857;-75
2022/01/12 21:02:06;;;;;;;137.90;30.92;;;;;;;;;;5012555;28;97361;-75
2022/01/12 21:04:34;;;;;;;142.93;30.90;;;;;;;;;;5006716;28;97071;-75
2022/01/12 21:07:02;;;;;;;166.00;33.33;;;;;;;;;;5017756;28;96654;-74
2022/01/12 21:09:28;;;;;;;182.13;32.95;;;;;;;;;;5044173;27;97970;-74
2022/01/12 21:11:55;;;;;;;156.35;30.38;;;;;;;;;;5054966;27;95300;-74
2022/01/12 21:14:21;;;;;;;154.10;30.23;;;;;;;;;;5054599;27;96341;-75
2022/01/12 21:16:49;;;;;;;166.60;29.08;;;;;;;;;;5057471;27;97398;-74
2022/01/12 21:19:16;;;;;;;158.18;29.60;;;;;;;;;;5053765;27;96805;-74
2022/01/12 21:21:42;;;;;;;191.13;29.98;;;;;;;;;;5036594;27;97643;-74
2022/01/12 21:24:11;;;;;;;173.52;28.38;;;;;;;;;;5054384;27;95065;-74
2022/01/12 21:26:38;;;;;;;203.07;30.85;;;;;;;;;;5054909;27;96826;-74
2022/01/12 21:29:05;;;;;;;226.38;29.30;;;;;;;;;;5054173;27;96626;-74
2022/01/12 21:31:32;;;;;;;208.25;29.85;;;;;;;;;;5054023;27;95352;-74
2022/01/12 21:33:59;;;;;;;186.55;30.33;;;;;;;;;;5055057;27;95772;-74
2022/01/12 21:36:27;;;;;;;204.77;31.05;;;;;;;;;;5054266;27;97631;-74
2022/01/12 21:38:59;;;;;;;224.55;33.30;;;;;;;;;;5056930;27;95348;-74
2022/01/12 21:41:30;;;;;;;244.52;33.00;;;;;;;;;;5053981;27;97587;-74
2022/01/12 21:43:58;;;;;;;306.80;37.40;;;;;;;;;;5055189;27;95350;-76
2022/01/12 21:46:26;;;;;;;213.45;34.55;;;;;;;;;;5053951;27;96742;-76
2022/01/12 21:48:53;;;;;;;210.30;33.33;;;;;;;;;;5054004;27;97281;-76
2022/01/12 21:51:20;;;;;;;223.55;33.72;;;;;;;;;;5053389;27;95293;-76
2022/01/12 21:53:47;;;;;;;267.88;34.38;;;;;;;;;;5036417;27;96931;-77
2022/01/12 21:56:14;;;;;;;210.50;33.05;;;;;;;;;;5053713;27;97659;-75
2022/01/12 21:58:45;;;;;;;285.90;36.88;;;;;;;;;;5053663;27;95402;-76
2022/01/12 22:01:13;;;;;;;276.45;35.17;;;;;;;;;;5057097;27;97124;-76
2022/01/12 22:03:40;;;;;;;323.67;37.80;;;;;;;;;;5054287;27;95216;-76
2022/01/12 22:06:08;;;;;;;292.65;33.63;;;;;;;;;;5053766;27;96852;-76
2022/01/12 22:08:34;;;;;;;339.42;36.22;;;;;;;;;;5053484;27;98378;-75
2022/01/12 22:11:02;;;;;;;246.05;33.25;;;;;;;;;;5054234;27;96475;-76
2022/01/12 22:13:28;;;;;;;355.17;36.83;;;;;;;;;;5053575;27;95739;-75
2022/01/12 22:15:55;;;;;;;292.75;32.97;;;;;;;;;;5053980;27;96963;-75
2022/01/12 22:18:22;;;;;;;242.52;33.28;;;;;;;;;;5053538;27;95402;-75
2022/01/12 22:20:50;;;;;;;276.40;31.40;;;;;;;;;;5053419;27;97086;-76
2022/01/12 22:23:17;;;;;;;310.75;34.03;;;;;;;;;;5038513;27;97874;-75
2022/01/12 22:25:44;;;;;;;290.45;32.88;;;;;;;;;;5053696;27;97040;-75
2022/01/12 22:28:10;;;;;;;341.13;33.72;;;;;;;;;;5053060;27;97265;-75
2022/01/12 22:30:37;;;;;;;192.02;28.48;;;;;;;;;;5053706;27;95338;-75
2022/01/12 22:33:04;;;;;;;255.10;31.42;;;;;;;;;;5053572;27;96885;-76
2022/01/12 22:35:30;;;;;;;371.02;37.25;;;;;;;;;;5052848;27;97471;-75
2022/01/12 22:37:57;;;;;;;274.48;30.40;;;;;;;;;;5035909;27;95397;-75
2022/01/12 22:40:27;;;;;;;254.07;28.92;;;;;;;;;;5053040;27;97311;-76
2022/01/12 22:42:55;;;;;;;290.17;31.77;;;;;;;;;;5056646;27;97283;-75
2022/01/12 22:45:21;;;;;;;263.10;31.23;;;;;;;;;;5053582;27;96834;-75
2022/01/12 22:47:48;;;;;;;231.70;28.02;;;;;;;;;;5053211;27;97238;-73
2022/01/12 22:50:14;;;;;;;224.23;28.80;;;;;;;;;;5052270;27;95311;-73
2022/01/12 22:52:41;;;;;;;299.20;33.95;;;;;;;;;;5053214;27;95694;-73
2022/01/12 22:55:08;;;;;;;270.95;33.40;;;;;;;;;;5052810;27;97507;-74
2022/01/12 22:57:42;;;;;;;327.13;35.17;;;;;;;;;;5053584;27;95359;-74
2022/01/12 23:00:09;;;;;;;279.98;32.47;;;;;;;;;;5053005;27;96944;-74
2022/01/12 23:02:36;;;;;;;262.95;31.58;;;;;;;;;;5052780;27;97275;-73
2022/01/12 23:05:02;;;;;;;244.35;29.77;;;;;;;;;;5056842;27;95194;-74
2022/01/12 23:07:29;;;;;;;228.60;28.13;;;;;;;;;;5051611;27;97548;-73
2022/01/12 23:09:55;;;;;;;209.38;29.02;;;;;;;;;;5050303;27;95425;-74
2022/01/12 23:12:22;;;;;;;168.52;27.05;;;;;;;;;;5052712;27;96903;-74
2022/01/12 23:14:48;;;;;;;206.27;25.85;;;;;;;;;;5053288;27;97423;-73
2022/01/12 23:17:14;;;;;;;188.35;25.90;;;;;;;;;;5052425;27;95303;-74
2022/01/12 23:19:40;;;;;;;188.73;26.00;;;;;;;;;;5034177;27;96806;-74
2022/01/12 23:22:07;;;;;;;203.77;26.25;;;;;;;;;;5052248;27;96475;-74
2022/01/12 23:24:33;;;;;;;195.07;26.35;;;;;;;;;;5052067;27;95395;-75
2022/01/12 23:27:00;;;;;;;196.48;27.88;;;;;;;;;;5056263;27;96890;-76
2022/01/12 23:29:27;;;;;;;258.70;30.52;;;;;;;;;;5034374;27;95145;-76
2022/01/12 23:31:55;;;;;;;190.40;28.00;;;;;;;;;;5052326;27;96976;-76
2022/01/12 23:58:32;;;;;;;269.95;27.90;;;;;;;;;;5051947;27;95307;-76
